createdAt,value
2023-03-11T00:00:47.519Z,-0.96
2023-03-11T00:03:29.280Z,-0.95
2023-03-11T00:06:02.392Z,-0.97
2023-03-11T00:08:33.478Z,-0.97
2023-03-11T00:11:03.675Z,-0.97
2023-03-11T00:13:33.601Z,-0.98
2023-03-11T00:16:03.576Z,-1.00
2023-03-11T00:18:33.229Z,-0.98
2023-03-11T00:21:03.707Z,-0.99
2023-03-11T00:23:35.921Z,-1.02
2023-03-11T00:26:06.019Z,-0.98
2023-03-11T00:28:35.570Z,-0.97
2023-03-11T00:31:06.227Z,-1.01
2023-03-11T00:33:35.937Z,-1.01
2023-03-11T00:36:07.250Z,-1.02
2023-03-11T00:38:38.415Z,-1.00
2023-03-11T00:41:08.388Z,-0.96
2023-03-11T00:43:37.991Z,-0.98
2023-03-11T00:46:08.060Z,-0.96
2023-03-11T00:48:37.601Z,-0.98
2023-03-11T00:51:08.695Z,-0.99
2023-03-11T00:53:39.756Z,-1.01
2023-03-11T00:56:10.035Z,-1.03
2023-03-11T00:58:42.371Z,-1.01
2023-03-11T01:01:13.366Z,-1.00
2023-03-11T01:03:42.999Z,-1.01
2023-03-11T01:06:14.276Z,-1.00
2023-03-11T01:08:45.330Z,-1.01
2023-03-11T01:11:15.321Z,-0.98
2023-03-11T01:13:44.827Z,-1.01
2023-03-11T01:16:14.815Z,-1.03
2023-03-11T01:18:45.433Z,-1.02
2023-03-11T01:21:15.645Z,-1.05
2023-03-11T01:23:46.865Z,-1.06
2023-03-11T01:26:16.885Z,-1.05
2023-03-11T01:28:46.438Z,-1.07
2023-03-11T01:31:16.521Z,-1.06
2023-03-11T01:33:46.190Z,-1.10
2023-03-11T01:36:16.197Z,-1.08
2023-03-11T01:38:47.404Z,-1.08
2023-03-11T01:41:17.423Z,-1.06
2023-03-11T01:43:52.236Z,-1.09
2023-03-11T01:46:29.937Z,-1.10
2023-03-11T01:49:00.483Z,-1.08
2023-03-11T01:51:35.044Z,-1.08
2023-03-11T01:54:07.304Z,-1.09
2023-03-11T01:56:37.371Z,-1.07
2023-03-11T01:59:08.214Z,-1.09
2023-03-11T02:01:43.415Z,-1.04
2023-03-11T02:04:13.449Z,-1.03
2023-03-11T02:06:44.130Z,-1.07
2023-03-11T02:09:16.868Z,-1.05
2023-03-11T02:11:46.883Z,-1.08
2023-03-11T02:14:16.484Z,-1.08
2023-03-11T02:16:46.468Z,-1.08
2023-03-11T02:19:21.407Z,-1.06
2023-03-11T02:21:54.238Z,-1.08
2023-03-11T02:24:29.688Z,-1.05
2023-03-11T02:27:03.036Z,-1.06
2023-03-11T02:29:34.420Z,-1.08
2023-03-11T02:32:06.617Z,-1.07
2023-03-11T02:34:38.016Z,-1.06
2023-03-11T02:37:10.227Z,-1.06
2023-03-11T02:39:43.089Z,-1.07
2023-03-11T02:42:18.974Z,-1.07
2023-03-11T02:44:51.686Z,-1.07
2023-03-11T02:47:21.671Z,-1.07
2023-03-11T02:49:51.326Z,-1.08
2023-03-11T02:52:21.938Z,-1.02
2023-03-11T02:54:51.599Z,-1.04
2023-03-11T02:57:22.977Z,-1.03
2023-03-11T02:59:52.625Z,-1.01
2023-03-11T03:02:22.741Z,-1.00
2023-03-11T03:04:52.505Z,-1.00
2023-03-11T03:07:22.775Z,-0.98
2023-03-11T03:09:52.438Z,-1.00
2023-03-11T03:12:23.954Z,-1.00
2023-03-11T03:14:53.601Z,-1.02
2023-03-11T03:17:23.579Z,-1.03
2023-03-11T03:19:53.546Z,-1.03
2023-03-11T03:22:24.453Z,-1.02
2023-03-11T03:24:55.574Z,-0.98
2023-03-11T03:27:28.085Z,-1.02
2023-03-11T03:29:57.774Z,-1.05
2023-03-11T03:32:27.975Z,-1.04
2023-03-11T03:34:59.383Z,-1.02
2023-03-11T03:37:41.039Z,-1.06
2023-03-11T03:40:11.676Z,-1.07
2023-03-11T03:42:44.349Z,-1.10
2023-03-11T03:45:14.305Z,-1.08
2023-03-11T03:47:44.569Z,-1.10
2023-03-11T03:50:14.835Z,-1.05
2023-03-11T03:52:47.836Z,-1.05
2023-03-11T03:55:18.911Z,-1.05
2023-03-11T03:57:50.597Z,-1.11
2023-03-11T04:00:21.902Z,-1.12
2023-03-11T04:02:58.806Z,-1.13
2023-03-11T04:05:36.923Z,-1.07
2023-03-11T04:08:06.855Z,-1.13
2023-03-11T04:10:36.900Z,-1.14
2023-03-11T04:13:09.241Z,-1.16
2023-03-11T04:15:39.549Z,-1.16
2023-03-11T04:18:10.110Z,-1.16
2023-03-11T04:20:40.331Z,-1.15
2023-03-11T04:23:10.483Z,-1.16
2023-03-11T04:25:40.297Z,-1.17
2023-03-11T04:28:11.990Z,-1.16
2023-03-11T04:30:41.815Z,-1.20
2023-03-11T04:33:12.465Z,-1.22
2023-03-11T04:35:42.468Z,-1.22
2023-03-11T04:38:12.587Z,-1.24
2023-03-11T04:40:43.383Z,-1.22
2023-03-11T04:43:15.678Z,-1.22
2023-03-11T04:45:45.380Z,-1.22
2023-03-11T04:48:16.033Z,-1.27
2023-03-11T04:50:45.992Z,-1.27
2023-03-11T04:53:17.492Z,-1.28
2023-03-11T04:55:48.170Z,-1.27
2023-03-11T04:58:19.602Z,-1.28
2023-03-11T05:00:50.190Z,-1.27
2023-03-11T05:03:20.743Z,-1.30
2023-03-11T05:05:51.198Z,-1.24
2023-03-11T05:08:22.861Z,-1.26
2023-03-11T05:10:54.278Z,-1.29
2023-03-11T05:13:28.292Z,-1.28
2023-03-11T05:15:59.233Z,-1.26
2023-03-11T05:18:33.394Z,-1.25
2023-03-11T05:21:03.782Z,-1.24
2023-03-11T05:23:35.839Z,-1.23
2023-03-11T05:26:06.029Z,-1.21
2023-03-11T05:28:38.792Z,-1.21
2023-03-11T05:31:10.555Z,-1.16
2023-03-11T05:33:41.732Z,-1.10
2023-03-11T05:36:14.597Z,-1.12
2023-03-11T05:38:46.961Z,-1.13
2023-03-11T05:41:18.121Z,-1.13
2023-03-11T05:43:49.702Z,-1.12
2023-03-11T05:46:20.288Z,-1.10
2023-03-11T05:48:50.442Z,-1.04
2023-03-11T05:51:20.305Z,-1.03
2023-03-11T05:53:50.875Z,-1.04
2023-03-11T05:56:31.474Z,-1.07
2023-03-11T05:59:03.027Z,-1.07
2023-03-11T06:01:36.402Z,-1.05
2023-03-11T06:04:06.890Z,-1.07
2023-03-11T06:06:36.538Z,-1.07
2023-03-11T06:09:06.588Z,-1.05
2023-03-11T06:11:36.293Z,-1.05
2023-03-11T06:14:08.028Z,-1.04
2023-03-11T06:16:37.634Z,-1.02
2023-03-11T06:19:07.825Z,-1.02
2023-03-11T06:21:41.151Z,-1.02
2023-03-11T06:24:11.818Z,-0.98
2023-03-11T06:26:41.440Z,-0.98
2023-03-11T06:29:14.236Z,-0.97
2023-03-11T06:31:44.958Z,-1.03
2023-03-11T06:34:16.100Z,-1.03
2023-03-11T06:36:45.785Z,-1.06
2023-03-11T06:39:16.484Z,-1.04
2023-03-11T06:41:49.818Z,-1.00
2023-03-11T06:44:21.978Z,-1.01
2023-03-11T06:46:51.663Z,-1.01
2023-03-11T06:49:22.197Z,-0.98
2023-03-11T06:51:52.246Z,-0.98
2023-03-11T06:54:22.266Z,-0.95
2023-03-11T06:56:52.405Z,-0.96
2023-03-11T06:59:23.874Z,-0.99
2023-03-11T07:01:53.595Z,-1.01
2023-03-11T07:04:23.769Z,-0.99
2023-03-11T07:06:53.673Z,-0.96
2023-03-11T07:09:25.628Z,-1.00
2023-03-11T07:11:55.795Z,-0.97
2023-03-11T07:14:35.996Z,-0.98
2023-03-11T07:17:05.759Z,-0.97
2023-03-11T07:19:41.360Z,-1.00
2023-03-11T07:22:11.119Z,-0.95
2023-03-11T07:24:41.801Z,-0.99
2023-03-11T07:27:12.324Z,-0.98
2023-03-11T07:29:44.270Z,-0.95
2023-03-11T07:32:14.325Z,-0.88
2023-03-11T07:34:44.760Z,-0.87
2023-03-11T07:37:15.426Z,-0.88
2023-03-11T07:39:45.908Z,-0.90
2023-03-11T07:42:15.860Z,-0.86
2023-03-11T07:44:47.528Z,-0.92
2023-03-11T07:47:17.283Z,-0.93
2023-03-11T07:49:48.986Z,-0.88
2023-03-11T07:52:19.273Z,-0.86
2023-03-11T07:54:49.275Z,-0.88
2023-03-11T07:57:19.283Z,-0.84
2023-03-11T07:59:50.649Z,-0.85
2023-03-11T08:02:21.519Z,-0.88
2023-03-11T08:04:54.265Z,-0.89
2023-03-11T08:07:24.133Z,-0.86
2023-03-11T08:09:54.033Z,-0.82
2023-03-11T08:12:23.861Z,-0.83
2023-03-11T08:14:55.455Z,-0.82
2023-03-11T08:17:25.196Z,-0.84
2023-03-11T08:19:55.195Z,-0.82
2023-03-11T08:22:24.904Z,-0.84
2023-03-11T08:24:56.796Z,-0.85
2023-03-11T08:27:26.766Z,-0.81
2023-03-11T08:29:58.313Z,-0.82
2023-03-11T08:32:31.433Z,-0.82
2023-03-11T08:35:01.704Z,-0.79
2023-03-11T08:37:31.845Z,-0.75
2023-03-11T08:40:01.745Z,-0.76
2023-03-11T08:42:31.475Z,-0.77
2023-03-11T08:45:02.996Z,-0.72
2023-03-11T08:47:35.834Z,-0.76
2023-03-11T08:50:06.811Z,-0.67
2023-03-11T08:52:36.736Z,-0.62
2023-03-11T08:55:09.136Z,-0.62
2023-03-11T08:57:39.512Z,-0.66
2023-03-11T09:00:13.240Z,-0.60
2023-03-11T09:02:43.761Z,-0.65
2023-03-11T09:05:13.918Z,-0.64
2023-03-11T09:07:43.835Z,-0.63
2023-03-11T09:10:14.940Z,-0.64
2023-03-11T09:12:44.739Z,-0.68
2023-03-11T09:15:16.437Z,-0.63
2023-03-11T09:17:46.235Z,-0.64
2023-03-11T09:20:17.035Z,-0.66
2023-03-11T09:22:46.898Z,-0.64
2023-03-11T09:25:16.978Z,-0.55
2023-03-11T09:27:46.713Z,-0.59
2023-03-11T09:30:18.720Z,-0.57
2023-03-11T09:32:48.467Z,-0.47
2023-03-11T09:35:18.794Z,-0.43
2023-03-11T09:37:48.594Z,-0.41
2023-03-11T09:40:20.474Z,-0.38
2023-03-11T09:42:55.945Z,-0.41
2023-03-11T09:45:29.349Z,-0.32
2023-03-11T09:48:09.754Z,-0.37
2023-03-11T09:50:42.334Z,-0.29
2023-03-11T09:53:38.243Z,-0.30
2023-03-11T09:56:09.820Z,-0.29
2023-03-11T09:58:41.164Z,-0.31
2023-03-11T10:01:17.029Z,-0.22
2023-03-11T10:03:47.275Z,-0.25
2023-03-11T10:06:18.384Z,-0.30
2023-03-11T10:08:49.554Z,-0.27
2023-03-11T10:11:29.623Z,-0.24
2023-03-11T10:14:04.674Z,-0.24
2023-03-11T10:16:40.074Z,-0.19
2023-03-11T10:19:13.332Z,-0.25
2023-03-11T10:21:48.892Z,-0.19
2023-03-11T10:24:24.646Z,-0.29
2023-03-11T10:26:56.434Z,-0.33
2023-03-11T10:29:27.978Z,-0.27
2023-03-11T10:32:03.525Z,-0.31
2023-03-11T10:34:38.503Z,-0.25
2023-03-11T10:37:14.024Z,-0.11
2023-03-11T10:39:43.787Z,0.02
2023-03-11T10:42:15.027Z,-0.02
2023-03-11T10:44:45.060Z,0.03
2023-03-11T10:47:18.768Z,0.03
2023-03-11T10:49:49.225Z,0.10
2023-03-11T10:52:19.583Z,0.05
2023-03-11T10:54:50.524Z,0.14
2023-03-11T10:57:25.811Z,0.06
2023-03-11T10:59:56.345Z,0.21
2023-03-11T11:02:29.865Z,0.12
2023-03-11T11:05:09.093Z,0.12
2023-03-11T11:07:41.748Z,0.21
2023-03-11T11:10:15.788Z,0.13
2023-03-11T11:12:56.581Z,0.18
2023-03-11T11:15:28.101Z,0.23
2023-03-11T11:18:01.547Z,0.22
2023-03-11T11:20:32.446Z,0.28
2023-03-11T11:23:03.410Z,0.21
2023-03-11T11:25:34.345Z,0.15
2023-03-11T11:28:06.400Z,0.07
2023-03-11T11:30:36.412Z,0.12
2023-03-11T11:33:21.517Z,-0.28
2023-03-11T11:35:54.334Z,0.08
2023-03-11T11:38:25.982Z,0.08
2023-03-11T11:40:57.526Z,0.01
2023-03-11T11:43:34.657Z,0.05
2023-03-11T11:46:07.431Z,0.16
2023-03-11T11:48:41.818Z,0.14
2023-03-11T11:51:19.836Z,0.10
2023-03-11T11:53:54.224Z,0.19
2023-03-11T11:56:25.588Z,0.23
2023-03-11T11:58:56.244Z,0.20
2023-03-11T12:01:33.652Z,0.39
2023-03-11T12:04:34.470Z,0.50
2023-03-11T12:07:19.756Z,0.50
2023-03-11T12:09:53.983Z,0.51
2023-03-11T12:12:27.144Z,0.50
2023-03-11T12:15:01.165Z,0.53
2023-03-11T12:17:32.323Z,0.43
2023-03-11T12:20:05.478Z,0.29
2023-03-11T12:22:57.690Z,0.33
2023-03-11T12:25:53.742Z,0.19
2023-03-11T12:28:26.783Z,0.12
2023-03-11T12:30:58.962Z,0.13
2023-03-11T12:33:33.007Z,0.20
2023-03-11T12:36:03.751Z,0.10
2023-03-11T12:38:34.806Z,0.13
2023-03-11T12:41:07.947Z,0.07
2023-03-11T12:44:10.918Z,-0.24
2023-03-11T12:47:15.699Z,0.03
2023-03-11T12:49:45.819Z,0.07
2023-03-11T12:52:20.277Z,-0.03
2023-03-11T12:54:50.567Z,-0.06
2023-03-11T12:57:33.087Z,-0.09
2023-03-11T13:00:23.318Z,-0.01
2023-03-11T13:03:04.269Z,0.03
2023-03-11T13:06:02.059Z,-0.02
2023-03-11T13:08:45.752Z,-0.01
2023-03-11T13:11:37.801Z,0.07
2023-03-11T13:14:20.668Z,0.11
2023-03-11T13:16:51.064Z,0.18
2023-03-11T13:19:50.208Z,0.14
2023-03-11T13:22:34.792Z,0.16
2023-03-11T13:25:21.523Z,0.17
2023-03-11T13:27:54.058Z,0.17
2023-03-11T13:30:33.643Z,0.23
2023-03-11T13:33:18.086Z,0.31
2023-03-11T13:35:57.730Z,0.42
2023-03-11T13:38:40.404Z,0.47
2023-03-11T13:41:15.765Z,0.57
2023-03-11T13:43:46.743Z,0.48
2023-03-11T13:46:27.537Z,0.46
2023-03-11T13:49:03.758Z,0.44
2023-03-11T13:51:37.170Z,0.44
2023-03-11T13:54:11.666Z,0.51
2023-03-11T13:56:49.466Z,0.45
2023-03-11T13:59:19.375Z,0.47
2023-03-11T14:01:54.784Z,0.46
2023-03-11T14:04:27.011Z,0.42
2023-03-11T14:06:57.480Z,0.47
2023-03-11T14:09:28.174Z,0.53
2023-03-11T14:12:05.734Z,0.62
2023-03-11T14:14:43.007Z,0.65
2023-03-11T14:17:15.936Z,0.76
2023-03-11T14:19:45.677Z,0.72
2023-03-11T14:22:16.863Z,0.71
2023-03-11T14:24:49.437Z,0.77
2023-03-11T14:27:19.474Z,0.87
2023-03-11T14:29:49.857Z,0.88
2023-03-11T14:32:27.189Z,0.79
2023-03-11T14:34:57.258Z,0.62
2023-03-11T14:37:31.257Z,0.60
2023-03-11T14:40:01.140Z,0.64
2023-03-11T14:42:35.732Z,0.66
2023-03-11T14:45:07.831Z,0.56
2023-03-11T14:47:42.648Z,0.56
2023-03-11T14:50:16.847Z,0.68
2023-03-11T14:52:48.647Z,0.81
2023-03-11T14:55:22.057Z,0.87
2023-03-11T14:57:56.637Z,1.00
2023-03-11T15:00:27.613Z,0.92
2023-03-11T15:03:01.364Z,1.08
2023-03-11T15:05:36.796Z,1.15
2023-03-11T15:08:07.672Z,1.10
2023-03-11T15:10:37.463Z,0.93
2023-03-11T15:13:09.351Z,0.86
2023-03-11T15:15:38.900Z,0.82
2023-03-11T15:18:22.429Z,0.64
2023-03-11T15:21:03.248Z,0.56
2023-03-11T15:23:34.697Z,0.45
2023-03-11T15:26:07.177Z,0.37
2023-03-11T15:28:39.569Z,0.31
2023-03-11T15:31:31.474Z,0.20
2023-03-11T15:34:27.789Z,0.17
2023-03-11T15:37:08.840Z,0.13
2023-03-11T15:39:48.368Z,0.17
2023-03-11T15:42:24.055Z,0.19
2023-03-11T15:45:25.898Z,0.21
2023-03-11T15:48:05.098Z,0.24
2023-03-11T15:50:52.284Z,0.12
2023-03-11T15:53:24.533Z,0.02
2023-03-11T15:55:55.683Z,-0.01
2023-03-11T15:58:25.732Z,0.03
2023-03-11T16:00:56.902Z,0.02
2023-03-11T16:03:26.452Z,0.04
2023-03-11T16:05:57.544Z,0.06
2023-03-11T16:08:29.080Z,0.07
2023-03-11T16:11:01.685Z,0.08
2023-03-11T16:13:31.471Z,0.09
2023-03-11T16:16:05.938Z,0.09
2023-03-11T16:18:38.040Z,0.06
2023-03-11T16:21:11.916Z,0.04
2023-03-11T16:23:51.602Z,0.13
2023-03-11T16:26:24.090Z,0.10
2023-03-11T16:28:53.757Z,0.07
2023-03-11T16:31:23.795Z,-0.01
2023-03-11T16:33:53.391Z,-0.05
2023-03-11T16:36:23.420Z,-0.03
2023-03-11T16:38:54.554Z,-0.16
2023-03-11T16:41:24.831Z,-0.17
2023-03-11T16:43:54.769Z,-0.30
2023-03-11T16:46:24.905Z,-0.25
2023-03-11T16:48:54.621Z,-0.31
2023-03-11T16:51:24.771Z,-0.30
2023-03-11T16:53:56.378Z,-0.28
2023-03-11T16:56:26.830Z,-0.33
2023-03-11T16:58:56.713Z,-0.45
2023-03-11T17:01:26.896Z,-0.37
2023-03-11T17:03:57.404Z,-0.43
2023-03-11T17:06:27.765Z,-0.52
2023-03-11T17:09:00.653Z,-0.58
2023-03-11T17:11:35.374Z,-0.52
2023-03-11T17:14:16.322Z,-0.63
2023-03-11T17:16:46.856Z,-0.64
2023-03-11T17:19:16.870Z,-0.72
2023-03-11T17:21:46.980Z,-0.76
2023-03-11T17:24:17.988Z,-0.73
2023-03-11T17:26:48.148Z,-0.69
2023-03-11T17:29:17.738Z,-0.70
2023-03-11T17:31:47.817Z,-0.69
2023-03-11T17:34:17.688Z,-0.78
2023-03-11T17:36:47.830Z,-0.78
2023-03-11T17:39:19.002Z,-0.78
2023-03-11T17:41:49.130Z,-0.79
2023-03-11T17:44:18.736Z,-0.66
2023-03-11T17:46:48.673Z,-0.62
2023-03-11T17:49:18.554Z,-0.63
2023-03-11T17:51:48.490Z,-0.81
2023-03-11T17:54:19.654Z,-0.86
2023-03-11T17:56:49.614Z,-0.79
2023-03-11T17:59:19.430Z,-0.68
2023-03-11T18:01:49.730Z,-0.72
2023-03-11T18:04:19.593Z,-0.72
2023-03-11T18:06:50.430Z,-0.74
2023-03-11T18:09:21.856Z,-0.80
2023-03-11T18:11:54.556Z,-0.79
2023-03-11T18:14:25.076Z,-0.86
2023-03-11T18:16:55.274Z,-0.96
2023-03-11T18:19:27.172Z,-1.04
2023-03-11T18:21:58.614Z,-1.10
2023-03-11T18:24:31.815Z,-1.08
2023-03-11T18:27:03.927Z,-1.21
2023-03-11T18:29:33.957Z,-1.29
2023-03-11T18:32:06.010Z,-1.29
2023-03-11T18:34:38.147Z,-1.26
2023-03-11T18:37:08.537Z,-1.31
2023-03-11T18:39:40.375Z,-1.32
2023-03-11T18:42:12.439Z,-1.34
2023-03-11T18:44:43.412Z,-1.24
2023-03-11T18:47:13.430Z,-1.18
2023-03-11T18:49:44.018Z,-1.18
2023-03-11T18:52:13.928Z,-1.20
2023-03-11T18:54:44.926Z,-1.08
2023-03-11T18:57:15.087Z,-1.08
2023-03-11T18:59:44.939Z,-1.04
2023-03-11T19:02:15.338Z,-1.17
2023-03-11T19:04:46.796Z,-1.23
2023-03-11T19:07:17.070Z,-1.25
2023-03-11T19:09:49.646Z,-1.19
2023-03-11T19:12:19.644Z,-1.20
2023-03-11T19:14:49.185Z,-1.28
2023-03-11T19:17:19.368Z,-1.26
2023-03-11T19:19:49.613Z,-1.28
2023-03-11T19:22:21.860Z,-1.28
2023-03-11T19:24:58.537Z,-1.23
2023-03-11T19:27:33.635Z,-1.27
2023-03-11T19:30:09.543Z,-1.31
2023-03-11T19:32:41.789Z,-1.23
2023-03-11T19:35:14.229Z,-1.22
2023-03-11T19:37:46.584Z,-1.31
2023-03-11T19:40:19.836Z,-1.21
2023-03-11T19:42:52.526Z,-1.18
2023-03-11T19:45:24.530Z,-1.24
2023-03-11T19:47:55.583Z,-1.17
2023-03-11T19:50:26.189Z,-1.08
2023-03-11T19:52:57.724Z,-1.01
2023-03-11T19:55:30.677Z,-1.05
2023-03-11T19:58:03.396Z,-0.98
2023-03-11T20:00:34.239Z,-1.08
2023-03-11T20:03:06.550Z,-1.07
2023-03-11T20:05:39.389Z,-1.05
2023-03-11T20:08:12.852Z,-0.96
2023-03-11T20:10:46.226Z,-0.91
2023-03-11T20:13:18.054Z,-0.94
2023-03-11T20:15:49.946Z,-0.99
2023-03-11T20:18:22.144Z,-1.05
2023-03-11T20:20:54.184Z,-1.14
2023-03-11T20:23:26.290Z,-1.16
2023-03-11T20:26:00.705Z,-1.24
2023-03-11T20:28:33.152Z,-1.18
2023-03-11T20:31:11.043Z,-1.10
2023-03-11T20:33:44.040Z,-0.99
2023-03-11T20:36:18.074Z,-1.08
2023-03-11T20:38:52.606Z,-0.97
2023-03-11T20:41:27.803Z,-1.09
2023-03-11T20:44:00.130Z,-1.06
2023-03-11T20:46:32.253Z,-1.11
2023-03-11T20:49:05.042Z,-1.16
2023-03-11T20:51:37.297Z,-1.21
2023-03-11T20:54:10.548Z,-1.25
2023-03-11T20:56:44.516Z,-1.19
2023-03-11T20:59:17.082Z,-1.23
2023-03-11T21:01:50.499Z,-1.29
2023-03-11T21:04:26.674Z,-1.34
2023-03-11T21:06:59.696Z,-1.37
2023-03-11T21:09:30.305Z,-1.37
2023-03-11T21:12:02.147Z,-1.31
2023-03-11T21:14:32.473Z,-1.32
2023-03-11T21:17:02.390Z,-1.25
2023-03-11T21:19:32.633Z,-1.19
2023-03-11T21:22:02.472Z,-1.15
2023-03-11T21:24:33.542Z,-1.16
2023-03-11T21:27:06.211Z,-1.13
2023-03-11T21:29:39.113Z,-1.14
2023-03-11T21:32:11.319Z,-1.14
2023-03-11T21:34:44.270Z,-1.11
2023-03-11T21:37:17.112Z,-1.23
2023-03-11T21:39:49.421Z,-1.31
2023-03-11T21:42:22.461Z,-1.30
2023-03-11T21:44:53.055Z,-1.34
2023-03-11T21:47:23.993Z,-1.36
2023-03-11T21:49:55.866Z,-1.27
2023-03-11T21:52:28.885Z,-1.18
2023-03-11T21:55:01.116Z,-1.21
2023-03-11T21:57:34.786Z,-1.27
2023-03-11T22:00:10.654Z,-1.40
2023-03-11T22:02:41.975Z,-1.50
2023-03-11T22:05:14.559Z,-1.57
2023-03-11T22:07:46.181Z,-1.71
2023-03-11T22:10:17.724Z,-1.85
2023-03-11T22:12:50.094Z,-1.95
2023-03-11T22:15:21.569Z,-2.03
2023-03-11T22:17:51.488Z,-2.12
2023-03-11T22:20:23.053Z,-2.17
2023-03-11T22:22:54.459Z,-2.23
2023-03-11T22:25:26.457Z,-2.27
2023-03-11T22:27:59.346Z,-2.32
2023-03-11T22:30:32.003Z,-2.36
2023-03-11T22:33:04.529Z,-2.41
2023-03-11T22:35:37.133Z,-2.45
2023-03-11T22:38:08.950Z,-2.48
2023-03-11T22:40:42.252Z,-2.60
2023-03-11T22:43:14.603Z,-2.61
2023-03-11T22:45:47.250Z,-2.59
2023-03-11T22:48:18.222Z,-2.61
2023-03-11T22:50:48.938Z,-2.68
2023-03-11T22:53:22.017Z,-2.72
2023-03-11T22:55:54.196Z,-2.66
2023-03-11T22:58:25.504Z,-2.66
2023-03-11T23:00:55.936Z,-2.62
2023-03-11T23:03:26.995Z,-2.55
2023-03-11T23:09:39.049Z,-2.12
2023-03-11T23:15:28.206Z,-1.87
2023-03-11T23:21:44.549Z,-2.00
2023-03-11T23:24:24.945Z,-2.07
2023-03-11T23:26:54.574Z,-2.03
2023-03-11T23:29:24.970Z,-2.01
2023-03-11T23:31:59.542Z,-1.99
2023-03-11T23:34:38.904Z,-1.97
2023-03-11T23:37:09.066Z,-1.89
2023-03-11T23:39:39.609Z,-1.87
2023-03-11T23:42:24.614Z,-1.80
2023-03-11T23:44:56.011Z,-1.79
2023-03-11T23:47:27.327Z,-1.71
2023-03-11T23:49:57.597Z,-1.64
2023-03-11T23:52:27.461Z,-1.60
2023-03-11T23:54:57.631Z,-1.58
2023-03-11T23:57:27.455Z,-1.51
2023-03-11T23:59:57.736Z,-1.61
